Time;durP1;ratioP1;P1;durP2;ratioP2;P2;SDS_P1;SDS_P2;PMS_P1;PMS_P2;Temp;Humidity;BMP_temperature;BMP_pressure;BME280_temperature;BME280_humidity;BME280_pressure;Samples;Min_cycle;Max_cycle;Signal;HPM_P1;HPM_P2
2022/08/22 00:01:42;;;;;;;4.65;1.40;;;;;;;18.07;99.57;96554.66;4969226;28;20057;-74
2022/08/22 00:04:29;;;;;;;5.82;1.83;;;;;;;18.12;98.75;96557.25;4968449;28;20122;-74
2022/08/22 00:07:11;;;;;;;5.05;1.50;;;;;;;18.17;99.82;96564.53;4967987;28;20121;-74
2022/08/22 00:10:00;;;;;;;8.02;1.70;;;;;;;18.07;100.00;96558.16;4971290;28;20049;-74
2022/08/22 00:12:35;;;;;;;5.57;1.63;;;;;;;18.01;100.00;96561.22;4970306;28;20047;-74
2022/08/22 00:15:12;;;;;;;6.05;1.50;;;;;;;17.80;100.00;96560.72;4968607;28;20034;-74
2022/08/22 00:18:00;;;;;;;5.32;1.65;;;;;;;17.54;100.00;96565.63;4983492;28;20186;-74
2022/08/22 00:20:44;;;;;;;5.53;1.67;;;;;;;17.55;100.00;96568.03;4968842;28;20054;-74
2022/08/22 00:23:37;;;;;;;5.78;1.63;;;;;;;17.65;100.00;96564.41;4966189;28;20081;-74
2022/08/22 00:26:07;;;;;;;6.00;1.60;;;;;;;17.59;100.00;96562.03;4964840;28;20107;-74
2022/08/22 00:28:45;;;;;;;10.60;1.80;;;;;;;17.48;100.00;96562.19;4970593;28;20038;-74
2022/08/22 00:31:20;;;;;;;5.35;1.80;;;;;;;17.42;100.00;96568.75;4965800;28;20594;-73
2022/08/22 00:34:14;;;;;;;4.40;1.60;;;;;;;17.30;100.00;96560.25;4971563;28;20654;-74
2022/08/22 00:36:51;;;;;;;4.35;1.65;;;;;;;17.31;100.00;96556.44;4968957;28;20045;-74
2022/08/22 00:39:39;;;;;;;5.68;1.50;;;;;;;17.36;100.00;96558.31;4968066;28;20042;-74
2022/08/22 00:42:21;;;;;;;4.22;1.60;;;;;;;17.24;100.00;96556.00;4967743;28;20045;-74
2022/08/22 00:45:22;;;;;;;7.43;1.98;;;;;;;17.01;100.00;96554.91;4970496;28;20501;-74
2022/08/22 00:48:21;;;;;;;6.40;1.90;;;;;;;16.91;100.00;96557.72;4962263;28;20401;-74
2022/08/22 00:51:07;;;;;;;6.53;1.75;;;;;;;16.99;100.00;96549.78;4970413;28;20121;-74
2022/08/22 00:54:05;;;;;;;8.57;2.00;;;;;;;16.83;100.00;96545.63;4969279;28;20061;-74
2022/08/22 00:56:58;;;;;;;9.65;1.90;;;;;;;16.71;100.00;96550.59;4960301;28;20498;-74
2022/08/22 00:59:26;;;;;;;4.55;1.85;;;;;;;16.71;100.00;96540.59;4968142;28;20038;-73
2022/08/22 01:02:20;;;;;;;7.72;1.80;;;;;;;16.66;100.00;96540.63;4971457;28;20042;-74
2022/08/22 01:04:55;;;;;;;5.38;2.00;;;;;;;16.75;100.00;96548.94;4968340;28;20129;-74
2022/08/22 01:07:36;;;;;;;6.20;1.70;;;;;;;16.81;100.00;96542.41;4968767;28;20104;-73
2022/08/22 01:10:38;;;;;;;4.17;1.60;;;;;;;16.75;100.00;96538.16;4985517;28;20420;-73
2022/08/22 01:13:21;;;;;;;4.57;1.50;;;;;;;16.57;100.00;96541.50;4966820;28;20045;-74
2022/08/22 01:15:52;;;;;;;6.68;1.73;;;;;;;16.52;100.00;96539.69;4972159;28;20042;-73
2022/08/22 01:18:49;;;;;;;4.32;1.85;;;;;;;16.38;100.00;96538.72;4968495;28;20054;-73
2022/08/22 01:21:56;;;;;;;4.60;1.58;;;;;;;16.38;100.00;96536.03;4966216;28;20057;-74
2022/08/22 01:24:22;;;;;;;7.00;2.10;;;;;;;16.43;100.00;96536.78;4966034;28;20086;-73
2022/08/22 01:27:43;;;;;;;5.25;1.75;;;;;;;16.43;100.00;96534.09;4969939;28;20121;-74
2022/08/22 01:30:33;;;;;;;14.32;2.45;;;;;;;16.40;100.00;96534.66;4960059;28;20042;-74
2022/08/22 01:33:24;;;;;;;4.50;1.70;;;;;;;16.38;100.00;96530.63;4968190;28;21313;-74
2022/08/22 01:36:13;;;;;;;5.87;1.43;;;;;;;16.40;100.00;96523.84;4973343;28;20046;-74
2022/08/22 01:39:01;;;;;;;8.75;1.70;;;;;;;16.38;100.00;96526.03;4971494;28;20360;-74
2022/08/22 01:41:57;;;;;;;7.97;1.80;;;;;;;16.23;100.00;96520.75;4972614;28;20682;-74
2022/08/22 01:44:45;;;;;;;6.30;1.75;;;;;;;16.25;100.00;96525.88;4972703;28;20922;-73
2022/08/22 01:47:21;;;;;;;9.32;2.50;;;;;;;16.11;100.00;96529.22;4971347;28;20267;-73
2022/08/22 01:50:20;;;;;;;5.30;1.88;;;;;;;16.06;100.00;96525.75;4972988;28;20048;-74
2022/08/22 01:52:52;;;;;;;5.05;1.80;;;;;;;16.07;100.00;96528.16;4968261;28;20559;-73
2022/08/22 01:55:33;;;;;;;6.50;1.85;;;;;;;16.06;100.00;96526.56;4970429;28;20124;-74
2022/08/22 01:58:00;;;;;;;;;;;;;;;15.87;100.00;96520.22;4970971;28;20121;-74
2022/08/22 02:00:32;;;;;;;6.93;1.83;;;;;;;15.84;100.00;96526.19;4970763;28;20202;-73
2022/08/22 02:03:24;;;;;;;5.28;1.60;;;;;;;15.74;100.00;96529.75;4970424;28;20113;-74
2022/08/22 02:05:59;;;;;;;10.40;1.98;;;;;;;15.65;100.00;96531.44;4973625;28;20148;-73
2022/08/22 02:08:35;;;;;;;6.35;1.90;;;;;;;15.51;100.00;96528.50;4970847;28;20525;-73
2022/08/22 02:11:07;;;;;;;4.88;1.80;;;;;;;15.47;100.00;96532.81;4971603;28;20053;-74
2022/08/22 02:14:02;;;;;;;27.20;2.92;;;;;;;15.37;100.00;96527.50;4971821;28;20515;-73
2022/08/22 02:16:52;;;;;;;7.05;2.00;;;;;;;15.45;100.00;96537.69;4971770;28;20085;-74
2022/08/22 02:19:29;;;;;;;6.18;2.05;;;;;;;15.42;100.00;96537.47;4972412;28;20053;-74
2022/08/22 02:22:25;;;;;;;6.70;2.17;;;;;;;15.27;100.00;96524.84;4967952;28;20133;-73
2022/08/22 02:24:58;;;;;;;4.65;1.73;;;;;;;15.36;100.00;96527.78;4972825;28;20504;-74
2022/08/22 02:27:42;;;;;;;4.90;1.98;;;;;;;15.39;100.00;96533.41;4970119;28;20069;-74
2022/08/22 02:30:19;;;;;;;7.05;1.73;;;;;;;15.41;100.00;96531.25;4969270;28;20043;-74
2022/08/22 02:33:09;;;;;;;5.80;2.05;;;;;;;15.41;100.00;96525.88;4972492;28;20053;-74
2022/08/22 02:36:03;;;;;;;5.68;1.60;;;;;;;15.32;100.00;96525.63;4973390;28;20074;-74
2022/08/22 02:38:48;;;;;;;6.18;2.00;;;;;;;15.18;100.00;96521.94;4970514;28;20069;-74
2022/08/22 02:41:31;;;;;;;7.22;2.28;;;;;;;15.06;100.00;96521.41;4970124;28;20497;-74
2022/08/22 02:44:19;;;;;;;13.45;2.03;;;;;;;15.13;100.00;96524.63;4972767;28;20037;-74
2022/08/22 02:47:09;;;;;;;6.68;2.00;;;;;;;15.13;100.00;96524.63;4968061;28;20038;-74
2022/08/22 02:49:48;;;;;;;5.05;1.90;;;;;;;14.92;100.00;96521.19;4969087;28;20093;-73
2022/08/22 02:52:21;;;;;;;3.75;1.60;;;;;;;14.76;100.00;96509.66;4986261;28;20034;-74
2022/08/22 02:54:55;;;;;;;7.10;1.90;;;;;;;14.65;100.00;96513.47;4972419;28;20326;-74
2022/08/22 02:57:43;;;;;;;7.05;2.28;;;;;;;14.58;100.00;96510.25;4968869;28;20041;-74
2022/08/22 03:00:21;;;;;;;7.90;2.20;;;;;;;14.74;100.00;96511.00;4971010;28;20128;-74
2022/08/22 03:03:14;;;;;;;8.40;1.90;;;;;;;14.89;100.00;96507.47;4970393;28;20046;-73
2022/08/22 03:05:45;;;;;;;6.18;2.20;;;;;;;14.96;100.00;96513.38;4973727;28;20480;-74
2022/08/22 03:08:28;;;;;;;;;;;;;;;14.84;100.00;96507.47;4972489;28;20038;-74
2022/08/22 03:11:05;;;;;;;4.80;2.28;;;;;;;14.82;100.00;96501.56;4970735;28;20288;-73
2022/08/22 03:13:47;;;;;;;9.73;2.90;;;;;;;14.90;100.00;96503.69;4968459;28;20474;-74
2022/08/22 03:16:44;;;;;;;10.32;2.28;;;;;;;14.87;100.00;96498.88;4973350;28;20132;-74
2022/08/22 03:19:42;;;;;;;9.85;2.22;;;;;;;14.84;100.00;96494.81;4971466;28;20529;-74
2022/08/22 03:22:32;;;;;;;6.28;2.03;;;;;;;14.92;100.00;96496.13;4947797;28;20061;-74
2022/08/22 03:25:25;;;;;;;8.13;2.85;;;;;;;14.99;100.00;96499.34;4969833;28;20042;-74
2022/08/22 03:27:58;;;;;;;7.28;2.45;;;;;;;15.00;100.00;96495.56;4972556;28;20034;-74
2022/08/22 03:30:27;;;;;;;5.68;2.40;;;;;;;15.02;100.00;96496.13;4971615;28;20505;-74
2022/08/22 03:33:12;;;;;;;7.88;2.38;;;;;;;14.98;100.00;96497.75;4971500;28;20042;-74
2022/08/22 03:35:41;;;;;;;7.15;2.22;;;;;;;14.94;100.00;96491.28;4969966;28;20510;-74
2022/08/22 03:38:15;;;;;;;8.20;2.38;;;;;;;14.89;100.00;96494.81;4967382;28;20073;-74
2022/08/22 03:41:11;;;;;;;10.70;2.72;;;;;;;14.85;100.00;96487.53;4972147;28;21082;-74
2022/08/22 03:44:21;;;;;;;10.20;2.75;;;;;;;14.76;100.00;96481.91;4970521;28;20042;-74
2022/08/22 03:46:59;;;;;;;8.43;2.47;;;;;;;14.68;100.00;96477.09;4970853;28;20066;-74
2022/08/22 03:50:01;;;;;;;8.27;2.40;;;;;;;14.66;100.00;96480.06;4968501;28;20390;-74
2022/08/22 03:53:06;;;;;;;8.50;2.30;;;;;;;14.68;100.00;96483.28;4969530;28;20076;-74
2022/08/22 03:55:51;;;;;;;8.98;2.33;;;;;;;14.75;100.00;96478.41;4969686;28;20038;-74
2022/08/22 03:58:31;;;;;;;6.15;2.30;;;;;;;14.75;100.00;96475.72;4966989;28;20105;-74
2022/08/22 04:01:18;;;;;;;7.32;2.20;;;;;;;14.70;100.00;96474.91;4965896;28;20074;-74
2022/08/22 04:04:06;;;;;;;8.05;2.60;;;;;;;14.81;100.00;96473.81;4968621;28;20090;-74
2022/08/22 04:06:54;;;;;;;6.57;2.80;;;;;;;14.91;100.00;96475.66;4965027;28;20317;-74
2022/08/22 04:09:30;;;;;;;7.65;2.40;;;;;;;14.97;100.00;96471.88;4969342;28;20046;-74
2022/08/22 04:12:17;;;;;;;7.18;2.70;;;;;;;15.05;100.00;96474.00;4967435;28;20137;-74
2022/08/22 04:15:11;;;;;;;6.30;2.35;;;;;;;15.05;100.00;96484.78;4971177;28;20531;-74
2022/08/22 04:18:05;;;;;;;10.02;2.63;;;;;;;15.05;100.00;96484.78;4969562;28;20167;-74
2022/08/22 04:20:37;;;;;;;7.60;2.55;;;;;;;15.07;100.00;96487.19;4970091;28;20039;-74
2022/08/22 04:23:15;;;;;;;13.45;2.70;;;;;;;15.04;100.00;96483.97;4967820;28;20054;-74
2022/08/22 04:26:02;;;;;;;8.75;2.60;;;;;;;15.03;100.00;96484.25;4969315;28;20494;-74
2022/08/22 04:28:55;;;;;;;16.17;2.72;;;;;;;15.03;100.00;96486.94;4965730;28;20088;-74
2022/08/22 04:31:26;;;;;;;11.13;3.42;;;;;;;15.09;100.00;96482.31;4968518;28;20528;-74
2022/08/22 04:34:10;;;;;;;12.63;3.13;;;;;;;15.12;100.00;96485.28;4969003;28;20453;-74
2022/08/22 04:36:59;;;;;;;9.00;2.88;;;;;;;15.16;100.00;96477.44;4968826;28;20453;-74
2022/08/22 04:39:31;;;;;;;10.38;2.95;;;;;;;15.20;100.00;96471.25;4968066;28;20034;-74
2022/08/22 04:42:07;;;;;;;4.95;2.55;;;;;;;15.31;100.00;96478.19;4967474;28;20043;-74
2022/08/22 04:45:02;;;;;;;9.02;3.10;;;;;;;15.37;100.00;96475.47;4966303;28;20073;-74
2022/08/22 04:47:39;;;;;;;6.28;3.00;;;;;;;15.36;100.00;96480.06;4967764;28;20081;-74
2022/08/22 04:50:08;;;;;;;9.85;3.22;;;;;;;15.39;100.00;96478.69;4967770;28;20514;-74
2022/08/22 04:52:47;;;;;;;15.15;3.63;;;;;;;15.34;100.00;96479.53;4955047;28;20445;-74
2022/08/22 04:55:32;;;;;;;10.15;3.58;;;;;;;15.29;100.00;96490.31;4969468;28;20051;-74
2022/08/22 04:58:21;;;;;;;11.55;2.92;;;;;;;15.28;100.00;96478.75;4968943;28;20157;-74
2022/08/22 05:01:22;;;;;;;8.73;3.47;;;;;;;15.26;100.00;96480.91;4968132;28;20314;-73
2022/08/22 05:04:04;;;;;;;9.80;3.63;;;;;;;15.27;100.00;96479.81;4922166;28;20061;-73
2022/08/22 05:06:33;;;;;;;13.20;3.63;;;;;;;15.32;100.00;96479.78;4967597;28;20109;-74
2022/08/22 05:09:04;;;;;;;9.75;3.38;;;;;;;15.36;100.00;96477.34;4966670;28;20508;-74
2022/08/22 05:11:31;;;;;;;14.57;3.40;;;;;;;15.45;100.00;96475.69;4970096;28;20361;-74
2022/08/22 05:14:01;;;;;;;33.53;4.20;;;;;;;15.53;100.00;96474.28;4967416;28;20041;-74
2022/08/22 05:16:39;;;;;;;8.15;3.05;;;;;;;15.61;100.00;96481.81;4968042;28;20047;-74
2022/08/22 05:19:16;;;;;;;8.70;3.40;;;;;;;15.67;100.00;96482.59;4967380;28;20042;-74
2022/08/22 05:21:45;;;;;;;9.75;3.00;;;;;;;15.71;100.00;96476.34;4968674;28;20240;-74
2022/08/22 05:24:18;;;;;;;10.38;3.58;;;;;;;15.75;100.00;96477.41;4968266;28;20221;-74
2022/08/22 05:26:48;;;;;;;12.75;3.53;;;;;;;15.84;100.00;96474.91;4968273;28;20079;-74
2022/08/22 05:29:19;;;;;;;9.57;3.22;;;;;;;15.91;100.00;96474.59;4965514;28;20556;-73
2022/08/22 05:31:55;;;;;;;8.75;3.22;;;;;;;16.02;100.00;96482.31;4965375;28;20050;-74
2022/08/22 05:34:24;;;;;;;7.45;3.00;;;;;;;16.11;100.00;96485.25;4969604;28;20073;-74
2022/08/22 05:36:59;;;;;;;10.52;4.03;;;;;;;16.18;100.00;96483.00;4968479;28;20502;-74
2022/08/22 05:39:26;;;;;;;7.80;3.13;;;;;;;16.25;100.00;96491.56;4969720;28;20046;-74
2022/08/22 05:41:57;;;;;;;11.18;3.40;;;;;;;16.30;100.00;96485.34;4952571;28;20406;-74
2022/08/22 05:44:26;;;;;;;9.50;3.25;;;;;;;16.41;100.00;96482.25;4969844;28;20100;-74
2022/08/22 05:47:03;;;;;;;8.38;3.28;;;;;;;16.47;100.00;96472.19;4967676;28;20133;-74
2022/08/22 05:50:01;;;;;;;8.13;3.30;;;;;;;16.52;100.00;96485.66;4967922;28;20102;-74
2022/08/22 05:52:27;;;;;;;10.07;3.40;;;;;;;16.53;100.00;96489.16;4966201;28;20081;-74
2022/08/22 05:54:58;;;;;;;9.70;3.30;;;;;;;16.60;100.00;96489.63;4967725;28;20205;-74
2022/08/22 05:57:33;;;;;;;12.43;2.90;;;;;;;16.66;100.00;96492.00;4966993;28;20132;-74
2022/08/22 06:00:10;;;;;;;9.90;2.95;;;;;;;16.72;100.00;96490.06;4968165;28;20138;-74
2022/08/22 06:02:57;;;;;;;7.75;3.28;;;;;;;16.75;100.00;96486.81;4967112;28;20042;-74
2022/08/22 06:05:27;;;;;;;13.50;3.60;;;;;;;16.78;100.00;96493.53;4987249;28;20081;-74
2022/08/22 06:08:02;;;;;;;8.10;3.35;;;;;;;16.79;100.00;96492.44;4969572;28;20521;-74
2022/08/22 06:10:39;;;;;;;9.27;3.75;;;;;;;16.82;100.00;96492.69;4969105;28;20477;-75
2022/08/22 06:13:12;;;;;;;9.02;3.60;;;;;;;16.87;100.00;96487.19;4964944;28;20041;-74
2022/08/22 06:15:53;;;;;;;14.02;3.83;;;;;;;16.98;100.00;96504.13;4969346;28;20195;-75
2022/08/22 06:18:21;;;;;;;12.50;4.18;;;;;;;17.11;100.00;96505.31;4967372;28;20042;-74
2022/08/22 06:20:58;;;;;;;11.52;3.80;;;;;;;17.26;100.00;96503.22;4970406;28;20516;-74
2022/08/22 06:23:33;;;;;;;8.80;3.40;;;;;;;17.44;100.00;96507.06;4972143;28;20047;-74
2022/08/22 06:26:04;;;;;;;11.10;4.00;;;;;;;17.60;100.00;96504.16;4970412;28;20054;-74
2022/08/22 06:28:37;;;;;;;10.80;4.03;;;;;;;17.76;100.00;96500.97;4972625;28;20050;-74
2022/08/22 06:31:04;;;;;;;8.77;3.50;;;;;;;17.86;100.00;96497.28;4974168;28;20085;-74
2022/08/22 06:33:35;;;;;;;14.68;4.57;;;;;;;18.04;100.00;96503.78;4970960;28;20136;-74
2022/08/22 06:36:30;;;;;;;9.30;3.80;;;;;;;18.25;100.00;96509.69;4974544;28;20045;-74
2022/08/22 06:39:22;;;;;;;11.15;3.80;;;;;;;18.43;100.00;96502.59;4971417;28;20107;-75
2022/08/22 06:41:58;;;;;;;10.90;4.43;;;;;;;18.59;100.00;96504.75;4973950;28;20059;-74
2022/08/22 06:44:28;;;;;;;11.05;3.90;;;;;;;18.66;100.00;96509.81;4971155;28;20116;-74
2022/08/22 06:46:57;;;;;;;12.23;4.25;;;;;;;18.69;100.00;96514.66;4974822;28;20030;-74
2022/08/22 06:49:24;;;;;;;13.32;4.40;;;;;;;18.59;100.00;96515.59;4984479;28;20038;-74
2022/08/22 06:51:52;;;;;;;14.48;3.85;;;;;;;18.55;100.00;96514.59;4971531;28;20377;-74
2022/08/22 06:54:23;;;;;;;11.65;4.28;;;;;;;18.56;100.00;96520.81;4973980;28;20224;-74
2022/08/22 06:56:52;;;;;;;13.27;4.72;;;;;;;18.67;100.00;96516.84;4969994;28;20422;-74
2022/08/22 06:59:23;;;;;;;8.10;4.15;;;;;;;18.71;100.00;96522.47;4972555;28;20534;-74
2022/08/22 07:01:54;;;;;;;;;;;;;;;18.73;100.00;96521.06;4973954;28;20042;-74
2022/08/22 07:04:24;;;;;;;;;;;;;;;18.71;100.00;96519.78;4971798;28;19928;-74
2022/08/22 07:06:50;;;;;;;9.60;4.30;;;;;;;18.75;100.00;96518.84;4970329;28;20309;-74
2022/08/22 07:09:36;;;;;;;11.18;4.22;;;;;;;18.93;100.00;96526.13;4971587;28;20056;-75
2022/08/22 07:12:15;;;;;;;12.15;5.13;;;;;;;18.99;100.00;96528.72;4969744;28;20992;-75
2022/08/22 07:14:44;;;;;;;12.80;4.28;;;;;;;19.09;100.00;96532.06;4970548;28;20748;-75
2022/08/22 07:17:45;;;;;;;24.15;5.20;;;;;;;19.29;100.00;96532.75;4969576;28;20642;-74
2022/08/22 07:20:33;;;;;;;15.18;4.95;;;;;;;19.42;100.00;96535.47;4971085;28;20038;-74
2022/08/22 07:23:01;;;;;;;12.27;4.95;;;;;;;19.49;100.00;96527.72;4971375;28;20070;-75
2022/08/22 07:25:28;;;;;;;11.98;5.20;;;;;;;19.60;100.00;96536.47;4970524;28;20445;-75
2022/08/22 07:28:03;;;;;;;9.98;4.63;;;;;;;19.73;100.00;96538.34;4971460;28;20510;-75
2022/08/22 07:30:56;;;;;;;12.52;4.65;;;;;;;19.88;100.00;96537.22;4972500;28;20496;-75
2022/08/22 07:33:31;;;;;;;16.67;5.18;;;;;;;19.86;100.00;96535.94;4982161;28;20059;-75
2022/08/22 07:36:11;;;;;;;11.38;5.28;;;;;;;19.93;100.00;96528.97;4972413;28;20342;-75
2022/08/22 07:38:42;;;;;;;12.88;5.53;;;;;;;19.97;98.91;96532.66;4970053;28;20065;-75
2022/08/22 07:41:08;;;;;;;17.33;7.13;;;;;;;19.95;99.32;96525.94;4969427;28;20085;-76
2022/08/22 07:43:45;;;;;;;14.25;5.63;;;;;;;19.86;100.00;96520.44;4971078;28;20436;-75
2022/08/22 07:46:29;;;;;;;13.98;5.28;;;;;;;20.00;99.90;96531.25;4966855;28;20499;-75
2022/08/22 07:49:04;;;;;;;12.93;5.53;;;;;;;20.12;98.83;96534.22;4973268;28;20085;-75
2022/08/22 07:51:40;;;;;;;21.70;6.45;;;;;;;20.28;98.71;96535.47;4973257;28;20064;-75
2022/08/22 07:54:08;;;;;;;11.45;5.53;;;;;;;20.35;97.80;96536.94;4970114;28;20042;-75
2022/08/22 07:57:05;;;;;;;9.57;5.00;;;;;;;20.28;98.00;96532.75;4969980;28;20073;-75
2022/08/22 07:59:34;;;;;;;11.65;5.25;;;;;;;20.49;98.44;96529.56;4968804;28;20058;-75
2022/08/22 08:02:06;;;;;;;15.23;6.43;;;;;;;20.57;97.58;96524.19;4970827;28;20053;-75
2022/08/22 08:04:34;;;;;;;14.07;5.82;;;;;;;20.71;97.83;96529.56;4968179;28;20179;-75
2022/08/22 08:07:04;;;;;;;16.15;5.30;;;;;;;20.80;96.15;96538.56;4942916;28;20066;-74
2022/08/22 08:09:33;;;;;;;13.20;5.18;;;;;;;20.97;95.23;96537.81;4968793;28;20054;-74
2022/08/22 08:12:03;;;;;;;12.90;5.82;;;;;;;21.19;95.79;96534.25;4963847;28;20111;-74
2022/08/22 08:14:29;;;;;;;12.07;5.80;;;;;;;21.33;94.94;96532.25;4973573;28;20089;-74
2022/08/22 08:17:21;;;;;;;15.32;5.93;;;;;;;21.18;93.94;96540.81;4966738;28;20069;-74
2022/08/22 08:19:49;;;;;;;15.52;5.43;;;;;;;21.49;92.25;96540.78;4968643;28;20053;-74
2022/08/22 08:22:20;;;;;;;13.80;6.03;;;;;;;21.56;92.62;96545.75;4969754;28;20100;-74
2022/08/22 08:24:48;;;;;;;17.33;6.32;;;;;;;21.57;90.55;96550.88;4968600;28;20050;-74
2022/08/22 08:30:23;;;;;;;15.73;6.35;;;;;;;22.29;89.16;96544.09;4971517;28;20030;-74
2022/08/22 08:32:59;;;;;;;13.52;5.30;;;;;;;22.38;85.84;96553.06;4968234;28;20050;-74
2022/08/22 08:35:28;;;;;;;11.15;5.82;;;;;;;22.48;86.12;96546.47;4970930;28;20479;-74
2022/08/22 08:38:00;;;;;;;18.98;5.75;;;;;;;22.79;85.40;96551.72;4967356;28;20263;-74
2022/08/22 08:40:29;;;;;;;17.55;5.80;;;;;;;22.79;84.61;96540.81;4969907;28;20078;-74
2022/08/22 08:43:33;;;;;;;13.73;4.50;;;;;;;22.89;83.38;96540.50;4970544;28;20045;-74
2022/08/22 08:46:11;;;;;;;12.82;4.75;;;;;;;22.88;82.01;96535.34;4970115;28;20270;-74
2022/08/22 08:48:58;;;;;;;10.57;5.00;;;;;;;22.71;81.42;96542.41;4969425;28;20532;-74
2022/08/22 08:51:51;;;;;;;12.23;5.20;;;;;;;22.75;83.21;96542.59;4966647;28;20054;-74
2022/08/22 08:54:45;;;;;;;15.05;5.13;;;;;;;22.69;83.07;96541.94;4972984;28;20045;-74
2022/08/22 08:57:48;;;;;;;14.38;4.95;;;;;;;22.69;80.60;96536.50;4967730;28;20100;-74
2022/08/22 09:00:20;;;;;;;16.35;5.40;;;;;;;22.39;81.67;96541.03;4970030;28;20072;-74
2022/08/22 09:03:17;;;;;;;12.98;4.75;;;;;;;22.44;80.90;96538.16;4967834;28;20057;-74
2022/08/22 09:06:12;;;;;;;20.05;6.85;;;;;;;22.58;82.25;96515.38;4944313;28;20054;-74
2022/08/22 09:09:12;;;;;;;12.30;5.50;;;;;;;22.73;82.00;96528.47;4961656;28;20042;-74
2022/08/22 09:12:07;;;;;;;14.60;5.85;;;;;;;22.79;80.65;96519.78;4966240;28;20134;-74
2022/08/22 09:14:56;;;;;;;14.73;5.10;;;;;;;22.81;79.74;96527.66;4969732;28;20156;-74
2022/08/22 09:18:01;;;;;;;13.10;5.30;;;;;;;22.84;79.25;96516.09;4967702;28;20560;-74
2022/08/22 09:20:54;;;;;;;12.80;5.60;;;;;;;22.96;80.16;96508.06;4966278;28;20069;-74
2022/08/22 09:23:48;;;;;;;18.52;5.78;;;;;;;23.23;78.00;96508.75;4986676;28;20035;-74
2022/08/22 09:26:28;;;;;;;16.13;5.15;;;;;;;23.33;76.93;96520.06;4966827;28;20066;-74
2022/08/22 09:29:17;;;;;;;16.87;5.87;;;;;;;23.33;76.44;96522.81;4967320;28;20415;-74
2022/08/22 09:31:51;;;;;;;11.73;5.07;;;;;;;23.42;74.68;96514.56;4968214;28;20999;-74
2022/08/22 09:34:25;;;;;;;11.00;4.70;;;;;;;23.33;73.23;96520.06;4967726;28;20541;-74
2022/08/22 09:36:59;;;;;;;10.90;4.95;;;;;;;23.74;70.81;96515.88;4968703;28;20121;-74
2022/08/22 09:39:34;;;;;;;13.90;4.60;;;;;;;23.79;72.45;96514.88;4965340;28;20053;-74
2022/08/22 09:42:13;;;;;;;18.27;5.65;;;;;;;24.29;68.62;96512.06;4967682;28;20417;-74
2022/08/22 09:44:58;;;;;;;9.23;4.32;;;;;;;24.61;68.83;96488.63;4969455;28;20533;-74
2022/08/22 09:47:42;;;;;;;14.65;5.22;;;;;;;24.77;63.91;96496.97;4966957;28;20594;-74
2022/08/22 09:50:16;;;;;;;16.65;5.57;;;;;;;24.35;66.81;96494.31;4966707;28;20141;-74
2022/08/22 09:52:59;;;;;;;15.95;4.85;;;;;;;24.48;66.95;96492.44;4969019;28;20047;-75
2022/08/22 09:55:44;;;;;;;11.70;4.65;;;;;;;24.35;65.42;96507.19;4968524;28;20334;-74
2022/08/22 09:58:17;;;;;;;12.80;4.97;;;;;;;24.05;66.24;96512.75;4969946;28;20034;-74
2022/08/22 10:00:47;;;;;;;15.02;5.65;;;;;;;24.23;68.42;96509.88;4971659;28;20584;-74
2022/08/22 10:03:50;;;;;;;12.60;5.20;;;;;;;24.45;66.92;96502.13;4970364;28;20042;-74
2022/08/22 10:06:24;;;;;;;22.77;5.20;;;;;;;24.51;65.52;96499.16;4948424;28;20093;-75
2022/08/22 10:09:24;;;;;;;11.20;5.22;;;;;;;24.69;64.98;96501.41;4973256;28;20039;-74
2022/08/22 10:12:00;;;;;;;20.85;5.47;;;;;;;25.18;61.67;96496.03;4969173;28;20081;-74
2022/08/22 10:15:04;;;;;;;14.52;5.10;;;;;;;24.67;64.61;96505.63;4973407;28;20038;-74
2022/08/22 10:17:35;;;;;;;11.13;5.30;;;;;;;25.05;63.94;96499.88;4969776;28;20046;-74
2022/08/22 10:20:27;;;;;;;12.77;5.32;;;;;;;25.13;63.39;96493.50;4972300;28;20452;-75
2022/08/22 10:23:09;;;;;;;15.13;5.78;;;;;;;25.18;59.75;96487.81;4972258;28;20658;-74
2022/08/22 10:25:49;;;;;;;8.65;4.78;;;;;;;25.18;57.32;96493.28;4970404;28;20062;-74
2022/08/22 10:28:23;;;;;;;20.00;6.10;;;;;;;25.31;58.70;96485.09;4969266;28;20686;-75
2022/08/22 10:31:11;;;;;;;12.07;5.78;;;;;;;25.26;58.42;96486.91;4972306;28;20216;-75
2022/08/22 10:33:42;;;;;;;15.15;5.90;;;;;;;25.11;59.71;96487.56;4970687;28;20039;-74
2022/08/22 10:36:30;;;;;;;16.55;5.30;;;;;;;26.02;56.46;96484.53;4971744;28;20038;-74
2022/08/22 10:38:58;;;;;;;13.30;5.50;;;;;;;26.03;53.68;96470.47;4969813;28;20379;-74
2022/08/22 10:41:27;;;;;;;16.02;5.30;;;;;;;26.54;48.85;96468.00;4964998;28;20206;-75
2022/08/22 10:44:16;;;;;;;13.60;5.30;;;;;;;26.19;44.87;96472.47;4625453;28;10000278;-75
2022/08/22 10:46:55;;;;;;;8.90;5.20;;;;;;;26.95;44.73;96468.66;4625724;28;10001549;-74
2022/08/22 10:49:57;;;;;;;16.95;5.30;;;;;;;26.52;42.51;96474.97;4970316;28;20097;-75
2022/08/22 10:52:40;;;;;;;16.73;5.25;;;;;;;27.09;40.74;96471.00;4967941;28;20338;-74
2022/08/22 10:55:14;;;;;;;13.73;4.75;;;;;;;27.69;37.16;96479.88;4967643;28;20128;-75
2022/08/22 10:57:54;;;;;;;9.95;4.97;;;;;;;29.24;34.98;96466.81;4967314;28;20093;-75
2022/08/22 11:00:45;;;;;;;;;;;;;;;29.77;33.65;96468.81;4969006;28;20678;-75
2022/08/22 11:03:37;;;;;;;12.05;4.57;;;;;;;32.85;29.40;96462.69;4965534;28;19925;-75
2022/08/22 11:06:11;;;;;;;11.23;4.80;;;;;;;32.21;28.70;96465.97;4945053;28;20062;-75
2022/08/22 11:08:55;;;;;;;14.80;4.38;;;;;;;31.18;28.63;96471.63;4967634;28;20066;-75
2022/08/22 11:11:45;;;;;;;24.73;4.80;;;;;;;34.41;26.18;96450.59;4967757;28;20038;-75
2022/08/22 11:14:34;;;;;;;14.13;4.07;;;;;;;35.95;22.60;96453.00;4967366;28;20744;-76
2022/08/22 11:17:24;;;;;;;18.60;5.13;;;;;;;36.66;22.04;96460.50;4970253;28;20117;-75
2022/08/22 11:20:18;;;;;;;12.43;4.63;;;;;;;32.39;26.54;96466.88;4971626;28;20039;-75
2022/08/22 11:23:13;;;;;;;10.30;4.40;;;;;;;32.78;27.17;96460.66;4971238;28;20077;-75
2022/08/22 11:25:46;;;;;;;13.07;4.38;;;;;;;33.15;27.39;96456.75;4959743;28;20054;-75
2022/08/22 11:28:58;;;;;;;11.80;4.53;;;;;;;35.91;23.74;96447.47;4967846;28;20408;-75
2022/08/22 11:31:36;;;;;;;11.75;4.40;;;;;;;37.52;22.21;96439.69;4968831;28;20161;-75
2022/08/22 11:34:19;;;;;;;13.93;4.22;;;;;;;39.34;20.51;96435.88;4967904;28;20483;-74
2022/08/22 11:37:07;;;;;;;10.85;4.03;;;;;;;40.40;19.65;96437.84;4970282;28;20076;-75
2022/08/22 11:39:40;;;;;;;12.55;4.32;;;;;;;41.85;17.37;96437.19;4966607;28;20128;-75
2022/08/22 11:42:21;;;;;;;12.43;4.70;;;;;;;37.75;20.28;96442.44;4968637;28;20049;-75
2022/08/22 11:44:54;;;;;;;14.63;4.45;;;;;;;32.71;25.29;96453.13;4965643;28;20130;-74
2022/08/22 11:47:23;;;;;;;13.98;4.75;;;;;;;30.05;29.05;96449.88;4970269;28;20076;-74
2022/08/22 11:49:55;;;;;;;13.00;4.40;;;;;;;31.24;28.35;96449.97;4969426;28;20295;-74
2022/08/22 11:52:24;;;;;;;12.15;4.50;;;;;;;35.95;24.04;96439.06;4968534;28;20255;-74
2022/08/22 11:55:08;;;;;;;16.73;5.43;;;;;;;39.36;19.29;96434.22;4968306;28;20053;-74
2022/08/22 11:57:43;;;;;;;18.70;4.68;;;;;;;38.88;20.30;96421.78;4969209;28;20097;-75
2022/08/22 12:00:22;;;;;;;25.58;4.95;;;;;;;35.82;21.79;96432.47;4967033;28;20060;-74
2022/08/22 12:03:14;;;;;;;23.85;5.13;;;;;;;36.24;21.95;96440.31;4970631;28;20485;-75
2022/08/22 12:05:50;;;;;;;12.63;4.57;;;;;;;37.84;20.73;96425.94;4947557;28;20494;-74
2022/08/22 12:08:28;;;;;;;11.52;4.75;;;;;;;39.53;19.13;96424.56;4967348;28;20438;-74
2022/08/22 12:11:05;;;;;;;11.57;4.10;;;;;;;41.04;17.96;96427.47;4971215;28;20509;-74
2022/08/22 12:14:13;;;;;;;11.70;4.32;;;;;;;39.91;18.58;96415.56;4969520;28;20077;-75
2022/08/22 12:16:47;;;;;;;9.18;4.35;;;;;;;42.92;17.16;96415.56;4984769;28;20050;-75
2022/08/22 12:19:36;;;;;;;10.95;4.53;;;;;;;40.10;17.66;96414.66;4968158;28;20297;-75
2022/08/22 12:22:28;;;;;;;9.75;4.53;;;;;;;38.89;19.48;96417.75;4964953;28;20922;-74
2022/08/22 12:25:12;;;;;;;14.75;4.60;;;;;;;40.70;17.31;96421.72;4972805;28;20034;-75
2022/08/22 12:27:50;;;;;;;22.20;4.72;;;;;;;41.40;16.61;96415.09;4969215;28;20050;-75
2022/08/22 12:30:49;;;;;;;8.77;4.07;;;;;;;43.74;14.91;96400.88;4966824;28;20049;-73
2022/08/22 12:33:23;;;;;;;13.02;4.30;;;;;;;44.58;15.20;96411.63;4969617;28;20038;-73